Time;durP1;ratioP1;P1;durP2;ratioP2;P2;SDS_P1;SDS_P2;PMS_P1;PMS_P2;Temp;Humidity;BMP_temperature;BMP_pressure;BME280_temperature;BME280_humidity;BME280_pressure;Samples;Min_cycle;Max_cycle;Signal;HPM_P1;HPM_P2
2022/05/03 00:01:25;;;;;;;6.87;6.17;;;;;;;11.55;85.77;94657.16;5027454;28;20447;-83
2022/05/03 00:04:10;;;;;;;5.63;5.07;;;;;;;11.61;87.07;94667.13;5027478;28;20494;-83
2022/05/03 00:06:47;;;;;;;5.70;5.20;;;;;;;11.54;87.46;94669.47;5027408;28;20450;-83
2022/05/03 00:09:23;;;;;;;6.10;5.40;;;;;;;11.47;87.45;94669.22;5028078;28;20450;-83
2022/05/03 00:11:54;;;;;;;5.97;5.37;;;;;;;11.32;88.24;94669.81;5028044;28;20445;-83
2022/05/03 00:14:26;;;;;;;6.30;5.40;;;;;;;11.19;88.03;94677.97;5027709;28;20473;-84
2022/05/03 00:16:55;;;;;;;14.23;7.40;;;;;;;11.15;89.09;94666.09;5027294;28;20454;-83
2022/05/03 00:19:22;;;;;;;6.67;6.07;;;;;;;10.95;91.38;94665.25;5027430;28;20455;-83
2022/05/03 00:21:50;;;;;;;7.33;5.30;;;;;;;10.95;89.86;94669.66;5026777;28;20442;-84
2022/05/03 00:24:19;;;;;;;6.20;5.60;;;;;;;11.09;90.47;94666.66;5027007;28;20509;-84
2022/05/03 00:26:47;;;;;;;5.27;4.80;;;;;;;11.25;89.48;94672.16;5051286;28;20443;-84
2022/05/03 00:29:14;;;;;;;6.17;5.57;;;;;;;11.35;89.34;94664.28;5109368;28;20457;-84
2022/05/03 00:31:42;;;;;;;9.63;6.47;;;;;;;11.37;89.76;94659.72;5109499;28;20450;-84
2022/05/03 00:34:11;;;;;;;7.10;6.20;;;;;;;11.45;89.57;94667.72;5084575;28;20471;-84
2022/05/03 00:36:38;;;;;;;7.73;6.37;;;;;;;11.51;89.70;94664.50;5095981;28;20960;-83
2022/05/03 00:39:06;;;;;;;5.97;5.50;;;;;;;11.56;89.37;94666.72;5060965;28;20458;-83
2022/05/03 00:41:39;;;;;;;6.20;5.57;;;;;;;11.55;88.68;94657.16;5095807;28;20802;-83
2022/05/03 00:47:11;;;;;;;6.13;5.70;;;;;;;11.51;89.81;94661.88;5096216;28;20486;-83
2022/05/03 00:49:50;;;;;;;6.23;5.63;;;;;;;11.26;89.81;94662.47;5095474;28;20444;-83
2022/05/03 00:52:25;;;;;;;7.57;6.00;;;;;;;11.31;89.17;94662.91;5096080;28;20443;-83
2022/05/03 00:55:20;;;;;;;7.57;6.80;;;;;;;11.25;89.56;94660.81;5096441;28;20455;-84
2022/05/03 00:58:02;;;;;;;6.60;4.73;;;;;;;11.25;90.92;94656.38;5095860;28;20448;-84
2022/05/03 01:00:32;;;;;;;6.43;5.87;;;;;;;11.25;91.37;94655.56;5095333;28;20780;-84
2022/05/03 01:03:10;;;;;;;6.63;6.07;;;;;;;11.26;91.99;94657.22;5095949;28;20484;-84
2022/05/03 01:05:46;;;;;;;7.00;6.30;;;;;;;11.29;90.47;94646.47;5095363;28;20432;-84
2022/05/03 01:08:25;;;;;;;6.83;5.87;;;;;;;11.29;90.88;94644.66;5095424;28;20446;-84
2022/05/03 01:11:05;;;;;;;6.03;5.43;;;;;;;11.36;90.56;94643.13;5096576;28;20442;-84
2022/05/03 01:13:37;;;;;;;8.23;5.23;;;;;;;11.36;90.74;94640.50;5094979;28;20448;-84
2022/05/03 01:16:09;;;;;;;5.97;4.93;;;;;;;11.38;90.50;94646.44;5094945;28;20964;-84
2022/05/03 01:18:47;;;;;;;6.97;5.57;;;;;;;11.47;90.21;94652.63;5095897;28;20436;-84
2022/05/03 01:21:19;;;;;;;7.17;6.57;;;;;;;11.38;90.70;94645.59;5095444;28;20941;-84
2022/05/03 01:24:02;;;;;;;7.03;6.43;;;;;;;11.34;90.28;94654.75;5094664;28;20487;-84
2022/05/03 01:27:16;;;;;;;11.30;6.20;;;;;;;11.23;90.72;94647.00;5095710;28;20925;-84
2022/05/03 01:29:46;;;;;;;7.50;5.70;;;;;;;10.95;91.02;94649.50;5094974;28;20448;-84
2022/05/03 01:32:19;;;;;;;12.07;6.10;;;;;;;10.70;91.03;94648.25;5094742;28;20912;-83
2022/05/03 01:34:47;;;;;;;5.67;5.17;;;;;;;10.65;91.86;94644.38;5094955;28;20443;-84
2022/05/03 01:37:40;;;;;;;7.70;5.73;;;;;;;10.60;91.68;94638.69;5076533;28;20425;-84
2022/05/03 01:40:08;;;;;;;6.57;4.87;;;;;;;10.57;91.60;94638.97;5095002;28;20472;-84
2022/05/03 01:43:06;;;;;;;6.37;5.40;;;;;;;10.51;91.65;94630.69;5094189;28;20445;-84
2022/05/03 01:45:42;;;;;;;6.23;5.23;;;;;;;10.58;91.11;94632.75;5093753;28;20447;-84
2022/05/03 01:48:26;;;;;;;6.37;5.77;;;;;;;10.52;90.89;94642.84;5094159;28;20522;-84
2022/05/03 01:50:58;;;;;;;6.23;5.60;;;;;;;10.60;90.86;94638.69;5094337;28;20955;-84
2022/05/03 01:53:34;;;;;;;5.83;5.10;;;;;;;10.68;91.17;94644.09;5094393;28;20795;-84
2022/05/03 01:56:32;;;;;;;9.67;5.93;;;;;;;10.84;91.80;94636.50;5094032;28;20443;-83
2022/05/03 01:59:26;;;;;;;5.83;5.37;;;;;;;10.94;91.03;94639.97;5094197;28;20537;-83
2022/05/03 02:01:59;;;;;;;5.80;5.30;;;;;;;10.96;89.05;94638.03;5012483;28;20448;-84
2022/05/03 02:04:59;;;;;;;6.80;6.17;;;;;;;10.91;88.81;94636.78;5012255;28;20997;-84
2022/05/03 02:07:36;;;;;;;5.50;5.10;;;;;;;10.67;88.54;94637.19;5009304;28;20463;-84
2022/05/03 02:10:07;;;;;;;7.20;5.37;;;;;;;10.84;88.90;94633.88;5011855;28;20451;-85
2022/05/03 02:12:35;;;;;;;5.50;5.10;;;;;;;10.81;88.33;94628.91;5011864;28;20444;-84
2022/05/03 02:15:06;;;;;;;6.40;5.90;;;;;;;10.80;89.01;94640.38;5012304;28;20451;-84
2022/05/03 02:17:55;;;;;;;6.10;5.40;;;;;;;10.78;88.83;94634.44;4979617;28;20444;-83
2022/05/03 02:20:46;;;;;;;6.70;5.77;;;;;;;10.86;89.22;94638.03;4962826;28;20775;-84
2022/05/03 02:23:29;;;;;;;9.03;5.77;;;;;;;10.89;89.62;94629.06;5012160;28;20523;-83
2022/05/03 02:26:26;;;;;;;6.43;5.83;;;;;;;10.95;89.87;94639.00;5011427;28;20454;-84
2022/05/03 02:28:56;;;;;;;9.03;5.80;;;;;;;10.80;90.21;94629.88;4983756;28;20447;-84
2022/05/03 02:31:33;;;;;;;6.30;5.70;;;;;;;10.51;90.80;94627.25;5011480;28;20454;-83
2022/05/03 02:34:15;;;;;;;6.40;5.80;;;;;;;10.31;92.23;94629.00;5011768;28;20538;-84
2022/05/03 02:36:49;;;;;;;8.00;7.00;;;;;;;10.54;92.20;94613.84;5011417;28;20454;-84
2022/05/03 02:39:25;;;;;;;6.93;5.80;;;;;;;10.73;91.97;94628.78;5054448;28;20439;-83
2022/05/03 02:41:58;;;;;;;6.73;5.47;;;;;;;10.84;91.52;94626.03;5093400;28;20448;-84
2022/05/03 02:44:27;;;;;;;7.70;6.97;;;;;;;10.94;90.37;94631.25;5093364;28;20484;-83
2022/05/03 02:47:03;;;;;;;6.20;5.60;;;;;;;10.99;90.54;94623.81;5093256;28;20447;-84
2022/05/03 02:49:42;;;;;;;6.37;5.73;;;;;;;10.91;89.29;94618.41;5093130;28;20451;-84
2022/05/03 02:52:17;;;;;;;6.43;5.90;;;;;;;10.94;89.59;94623.38;5094353;28;20880;-84
2022/05/03 02:54:58;;;;;;;7.03;5.80;;;;;;;11.01;90.27;94622.72;5093237;28;20787;-83
2022/05/03 02:57:37;;;;;;;5.83;5.23;;;;;;;10.86;90.53;94616.22;5092914;28;20455;-83
2022/05/03 03:03:17;;;;;;;7.83;7.03;;;;;;;10.91;91.39;94621.88;5092960;28;20426;-83
2022/05/03 03:05:54;;;;;;;6.83;6.13;;;;;;;10.89;90.78;94617.72;5093204;28;20444;-83
2022/05/03 03:08:23;;;;;;;7.30;6.40;;;;;;;10.81;91.53;94626.28;5093133;28;20455;-82
2022/05/03 03:10:53;;;;;;;7.35;6.65;;;;;;;10.86;91.37;94619.66;5093854;28;20468;-83
2022/05/03 03:13:30;;;;;;;7.20;6.53;;;;;;;10.92;90.19;94620.91;5093682;28;20548;-85
2022/05/03 03:15:57;;;;;;;10.70;7.03;;;;;;;10.96;90.17;94624.91;5058395;28;20443;-84
2022/05/03 03:18:26;;;;;;;6.90;6.17;;;;;;;10.97;90.30;94621.31;5093496;28;21168;-80
2022/05/03 03:20:58;;;;;;;7.40;6.77;;;;;;;11.02;90.22;94616.50;5093963;28;20453;-81
2022/05/03 03:23:28;;;;;;;6.97;6.27;;;;;;;11.05;90.36;94625.88;5094205;28;20970;-83
2022/05/03 03:25:56;;;;;;;33.53;7.77;;;;;;;10.94;89.92;94613.72;5093527;28;20442;-83
2022/05/03 03:28:24;;;;;;;6.87;6.17;;;;;;;11.02;90.07;94620.91;5093829;28;20447;-82
2022/05/03 03:30:53;;;;;;;6.73;6.00;;;;;;;11.00;90.28;94623.69;5058044;28;20428;-83
2022/05/03 03:33:20;;;;;;;6.77;6.10;;;;;;;11.02;90.34;94620.91;5093758;28;20480;-83
2022/05/03 03:35:48;;;;;;;8.37;6.23;;;;;;;10.92;90.51;94627.94;5093694;28;20428;-82
2022/05/03 03:38:20;;;;;;;6.43;5.80;;;;;;;10.84;90.80;94636.50;5093836;28;20458;-82
2022/05/03 03:40:47;;;;;;;9.03;6.50;;;;;;;10.74;90.87;94626.03;5075008;28;20451;-82
2022/05/03 03:43:16;;;;;;;6.77;6.03;;;;;;;10.66;91.52;94630.28;5094084;28;20493;-80
2022/05/03 03:45:43;;;;;;;7.73;7.03;;;;;;;10.65;92.49;94632.06;5093497;28;20443;-80
2022/05/03 03:48:10;;;;;;;6.97;6.33;;;;;;;10.60;93.76;94622.97;5093489;28;20534;-83
2022/05/03 03:50:39;;;;;;;7.83;7.10;;;;;;;10.65;93.59;94626.00;5093945;28;20431;-82
2022/05/03 03:53:07;;;;;;;7.83;7.03;;;;;;;10.73;94.34;94640.13;5093707;28;20440;-80
2022/05/03 03:55:36;;;;;;;7.47;6.43;;;;;;;10.78;93.25;94635.28;5058670;28;20455;-83
2022/05/03 03:58:04;;;;;;;8.03;7.20;;;;;;;10.89;92.39;94642.19;5093370;28;20451;-81
2022/05/03 04:00:31;;;;;;;8.27;6.03;;;;;;;10.90;92.32;94638.59;5093431;28;20467;-82
2022/05/03 04:02:59;;;;;;;7.37;6.57;;;;;;;10.86;91.93;94647.69;5057517;28;20440;-83
2022/05/03 04:05:28;;;;;;;7.47;6.13;;;;;;;10.92;90.73;94646.31;5093060;28;20483;-82
2022/05/03 04:07:55;;;;;;;7.70;5.87;;;;;;;10.92;91.50;94649.78;5073957;28;20451;-83
2022/05/03 04:10:22;;;;;;;7.80;7.10;;;;;;;10.92;91.79;94649.78;5095265;28;20900;-82
2022/05/03 04:12:50;;;;;;;7.57;6.87;;;;;;;11.02;90.53;94647.16;5096852;28;20777;-85
2022/05/03 04:15:17;;;;;;;7.50;6.80;;;;;;;10.95;91.33;94651.28;5097072;28;20443;-85
2022/05/03 04:17:45;;;;;;;7.90;7.07;;;;;;;10.98;91.82;94653.63;5096447;28;20442;-85
2022/05/03 04:20:13;;;;;;;6.50;5.90;;;;;;;10.89;91.64;94662.34;5096782;28;20427;-83
2022/05/03 04:22:40;;;;;;;7.30;6.30;;;;;;;10.79;91.78;94646.59;5096817;28;20436;-82
2022/05/03 04:25:08;;;;;;;7.03;6.33;;;;;;;10.84;92.56;94644.38;5096261;28;20479;-82
2022/05/03 04:27:35;;;;;;;6.80;5.53;;;;;;;10.91;92.52;94658.63;5061231;28;20972;-83
2022/05/03 04:30:04;;;;;;;8.10;5.97;;;;;;;10.87;92.42;94652.00;5096478;28;20444;-83
2022/05/03 04:32:32;;;;;;;6.73;5.90;;;;;;;10.85;92.93;94656.53;5045039;28;20558;-82
2022/05/03 04:35:00;;;;;;;8.10;7.03;;;;;;;10.86;93.47;94658.19;5097728;28;20433;-82
2022/05/03 04:37:27;;;;;;;8.87;6.67;;;;;;;10.83;93.24;94658.47;5097266;28;20424;-82
2022/05/03 04:39:54;;;;;;;7.70;6.30;;;;;;;10.89;93.14;94657.94;5096765;28;20482;-83
2022/05/03 04:42:21;;;;;;;6.93;6.03;;;;;;;10.93;93.07;94661.94;5096603;28;20439;-82
2022/05/03 04:44:48;;;;;;;6.30;5.27;;;;;;;10.93;91.27;94661.94;5097403;28;20488;-81
2022/05/03 04:47:16;;;;;;;7.10;5.40;;;;;;;11.00;93.49;94660.44;5081174;28;20931;-87
2022/05/03 04:49:43;;;;;;;6.30;5.27;;;;;;;11.13;95.19;94658.34;5078615;28;20457;-85
2022/05/03 04:52:10;;;;;;;7.60;5.57;;;;;;;11.14;91.80;94653.91;5078242;28;20536;-84
2022/05/03 04:54:37;;;;;;;6.37;5.77;;;;;;;11.17;89.63;94662.34;5076865;28;20783;-86
2022/05/03 04:57:07;;;;;;;8.33;5.10;;;;;;;11.16;86.84;94675.63;5085567;28;20530;-85
2022/05/03 04:59:34;;;;;;;4.87;4.37;;;;;;;10.73;87.20;94674.22;5096626;28;20448;-85
2022/05/03 05:02:01;;;;;;;5.60;4.97;;;;;;;10.93;86.95;94669.81;5096498;28;20934;-86
2022/05/03 05:04:30;;;;;;;9.30;6.40;;;;;;;11.13;87.70;94676.72;5096648;28;20468;-86
2022/05/03 05:06:57;;;;;;;6.63;5.87;;;;;;;11.10;88.60;94671.75;5096314;28;20440;-86
2022/05/03 05:09:23;;;;;;;5.30;4.80;;;;;;;11.05;85.96;94671.34;5096803;28;20450;-86
2022/05/03 05:11:51;;;;;;;5.00;4.50;;;;;;;10.92;84.32;94670.78;5096731;28;20439;-86
2022/05/03 05:14:20;;;;;;;13.50;4.57;;;;;;;10.97;83.42;94689.56;5097350;28;20432;-87
2022/05/03 05:16:48;;;;;;;5.47;4.97;;;;;;;11.01;84.97;94680.47;5061275;28;20456;-85
2022/05/03 05:19:15;;;;;;;6.30;5.70;;;;;;;11.04;86.84;94674.13;5077300;28;20441;-85
2022/05/03 05:21:43;;;;;;;5.20;4.80;;;;;;;11.03;87.51;94675.09;5075456;28;20452;-85
2022/05/03 05:24:11;;;;;;;6.17;4.63;;;;;;;10.99;87.97;94679.78;5075620;28;20481;-85
2022/05/03 05:26:39;;;;;;;8.03;4.50;;;;;;;10.86;86.15;94676.59;5057813;28;20436;-85
2022/05/03 05:29:05;;;;;;;5.00;4.40;;;;;;;10.84;84.70;94675.88;5075530;28;20524;-86
2022/05/03 05:31:32;;;;;;;5.63;5.23;;;;;;;10.84;84.90;94670.63;5075973;28;20939;-86
2022/05/03 05:33:59;;;;;;;5.00;4.57;;;;;;;10.83;85.16;94675.06;5075044;28;20833;-85
2022/05/03 05:36:27;;;;;;;4.73;4.23;;;;;;;10.89;85.24;94676.31;5074711;28;20966;-86
2022/05/03 05:38:55;;;;;;;5.33;4.10;;;;;;;10.93;85.72;94677.69;5074260;28;20452;-85
2022/05/03 05:41:22;;;;;;;5.40;4.47;;;;;;;11.01;85.94;94675.22;5074644;28;20436;-85
2022/05/03 05:43:49;;;;;;;5.47;4.90;;;;;;;11.11;84.60;94681.28;5075548;28;20437;-85
2022/05/03 05:46:16;;;;;;;4.70;4.30;;;;;;;11.21;83.36;94681.28;5074464;28;20962;-86
2022/05/03 05:48:43;;;;;;;5.80;4.97;;;;;;;11.42;84.31;94681.13;5074224;28;20445;-86
2022/05/03 05:51:09;;;;;;;6.07;4.77;;;;;;;11.57;82.32;94692.88;5074197;28;20448;-85
2022/05/03 05:53:35;;;;;;;7.33;4.73;;;;;;;11.70;80.29;94693.41;5074049;28;20447;-84
2022/05/03 05:56:05;;;;;;;6.07;4.70;;;;;;;11.61;79.41;94691.63;5073643;28;20437;-85
2022/05/03 05:58:32;;;;;;;5.63;4.93;;;;;;;11.81;79.83;94695.06;5073973;28;20957;-85
2022/05/03 06:01:00;;;;;;;7.00;5.97;;;;;;;11.91;79.96;94693.25;5075520;28;20449;-85
2022/05/03 06:03:28;;;;;;;8.17;6.60;;;;;;;12.03;79.60;94699.16;5074416;28;20448;-85
2022/05/03 06:05:56;;;;;;;8.63;6.50;;;;;;;12.20;79.32;94701.03;5074606;28;20484;-84
2022/05/03 06:08:24;;;;;;;4.30;3.90;;;;;;;12.35;78.12;94709.25;5074417;28;20548;-81
2022/05/03 06:10:51;;;;;;;7.30;4.70;;;;;;;12.51;77.72;94704.22;5073360;28;20438;-82
2022/05/03 06:13:19;;;;;;;4.43;4.00;;;;;;;12.74;78.22;94707.28;5075168;28;20211;-85
2022/05/03 06:15:48;;;;;;;5.00;3.50;;;;;;;12.83;76.81;94714.28;5075482;28;20475;-84
2022/05/03 06:18:15;;;;;;;4.00;3.70;;;;;;;13.02;75.02;94721.25;5074797;28;20810;-84
2022/05/03 06:20:42;;;;;;;5.60;4.20;;;;;;;13.10;72.64;94717.84;5074912;28;20436;-85
2022/05/03 06:23:09;;;;;;;4.43;3.97;;;;;;;13.17;71.87;94709.22;5074027;28;20483;-84
2022/05/03 06:25:36;;;;;;;4.80;4.40;;;;;;;13.20;70.57;94726.53;5073319;28;20481;-84
2022/05/03 06:28:03;;;;;;;5.40;3.43;;;;;;;13.22;70.70;94719.31;5073448;28;20441;-84
2022/05/03 06:30:32;;;;;;;4.80;4.00;;;;;;;13.26;72.57;94718.03;5073731;28;20433;-85
2022/05/03 06:32:59;;;;;;;6.03;4.00;;;;;;;13.27;72.32;94717.88;5072597;28;20568;-84
2022/05/03 06:35:28;;;;;;;7.40;4.00;;;;;;;13.28;73.41;94722.16;5073581;28;20448;-84
2022/05/03 06:37:55;;;;;;;4.53;4.13;;;;;;;13.21;74.52;94715.84;5074304;28;20872;-84
2022/05/03 06:40:22;;;;;;;4.33;3.93;;;;;;;13.10;72.56;94720.50;5055140;28;20441;-84
2022/05/03 06:42:49;;;;;;;7.63;3.60;;;;;;;13.09;72.69;94727.56;5073549;28;20469;-84
2022/05/03 06:45:15;;;;;;;5.27;4.20;;;;;;;12.46;72.28;94724.06;5073816;28;20563;-84
2022/05/03 06:47:44;;;;;;;13.63;4.40;;;;;;;12.17;74.08;94727.63;5073548;28;20978;-84
2022/05/03 06:50:11;;;;;;;7.97;4.77;;;;;;;11.89;74.43;94724.09;5073346;28;20444;-84
2022/05/03 06:53:01;;;;;;;5.20;4.07;;;;;;;11.71;76.77;94726.59;5054627;28;20440;-85
2022/05/03 06:55:27;;;;;;;6.27;3.73;;;;;;;11.49;78.13;94730.34;5073743;28;20452;-85
2022/05/03 06:57:54;;;;;;;6.93;5.43;;;;;;;11.61;78.11;94724.97;5073678;28;20468;-84
2022/05/03 07:00:21;;;;;;;5.50;5.00;;;;;;;11.81;79.18;94729.22;5073676;28;20445;-84
2022/05/03 07:02:50;;;;;;;6.93;4.97;;;;;;;11.84;79.34;94731.56;5073414;28;20441;-84
2022/05/03 07:05:17;;;;;;;6.93;4.37;;;;;;;11.76;79.16;94734.88;5073033;28;20480;-81
2022/05/03 07:07:44;;;;;;;6.83;5.30;;;;;;;11.65;79.55;94742.94;5073729;28;20436;-86
2022/05/03 07:10:10;;;;;;;5.10;4.60;;;;;;;11.68;79.27;94729.50;5072788;28;20459;-86
2022/05/03 07:12:39;;;;;;;5.40;4.90;;;;;;;11.59;79.93;94722.47;5073142;28;20449;-86
2022/05/03 07:15:08;;;;;;;8.13;4.60;;;;;;;11.65;79.85;94727.16;5073044;28;20437;-88
2022/05/03 07:23:06;;;;;;;8.90;5.90;;;;;;;11.91;79.55;94723.97;5072908;28;20428;-85
2022/05/03 07:25:33;;;;;;;6.07;5.47;;;;;;;12.01;79.25;94732.66;5054282;28;20491;-87
2022/05/03 07:28:00;;;;;;;15.13;6.10;;;;;;;11.94;78.40;94747.34;5073234;28;20455;-85
2022/05/03 07:30:27;;;;;;;4.63;4.23;;;;;;;11.77;80.12;94735.72;5089825;28;20454;-85
2022/05/03 07:32:54;;;;;;;5.10;4.70;;;;;;;11.54;79.36;94734.34;5093091;28;20482;-87
2022/05/03 07:35:23;;;;;;;8.57;5.20;;;;;;;11.85;80.39;94738.47;5093143;28;20436;-85
2022/05/03 07:37:52;;;;;;;6.40;5.47;;;;;;;11.91;79.80;94731.84;5092845;28;20472;-86
2022/05/03 07:40:19;;;;;;;6.23;4.57;;;;;;;11.72;76.83;94740.56;5092705;28;20450;-85
2022/05/03 07:42:46;;;;;;;11.27;5.23;;;;;;;11.44;78.74;94755.38;5093737;28;20444;-86
2022/05/03 07:45:13;;;;;;;5.93;5.33;;;;;;;11.68;80.65;94757.59;5095438;28;20487;-86
2022/05/03 07:47:40;;;;;;;7.43;4.70;;;;;;;11.58;82.18;94756.78;5097689;28;20522;-86
2022/05/03 07:50:08;;;;;;;5.03;4.50;;;;;;;11.15;84.25;94748.31;5097152;28;20427;-87
2022/05/03 07:52:38;;;;;;;7.00;4.70;;;;;;;11.08;85.42;94743.75;5097020;28;20454;-86
2022/05/03 07:55:06;;;;;;;5.10;4.60;;;;;;;10.89;85.75;94757.69;5097108;28;20448;-86
2022/05/03 07:57:33;;;;;;;4.70;3.70;;;;;;;10.92;86.75;94761.81;5097849;28;20786;-87
2022/05/03 08:00:00;;;;;;;8.83;4.83;;;;;;;10.89;88.03;94757.69;5078582;28;20450;-85
2022/05/03 08:02:28;;;;;;;5.27;4.77;;;;;;;10.81;88.69;94760.16;5097368;28;20444;-86
2022/05/03 08:04:55;;;;;;;6.50;4.70;;;;;;;10.75;89.80;94755.44;5097420;28;20483;-87
2022/05/03 08:07:23;;;;;;;5.63;5.13;;;;;;;10.95;90.77;94758.94;5097153;28;20446;-86
2022/05/03 08:09:53;;;;;;;4.67;4.27;;;;;;;10.80;88.23;94756.69;5096925;28;20471;-86
2022/05/03 08:12:21;;;;;;;5.40;4.90;;;;;;;10.80;90.01;94766.38;5097022;28;21010;-80
2022/05/03 08:14:48;;;;;;;10.20;4.67;;;;;;;10.90;92.22;94766.38;5097059;28;20479;-85
2022/05/03 08:17:15;;;;;;;4.07;3.73;;;;;;;10.83;88.26;94769.56;5097586;28;20528;-86
2022/05/03 08:19:41;;;;;;;2.87;2.67;;;;;;;10.95;88.33;94778.13;5096517;28;20448;-87
2022/05/03 08:22:08;;;;;;;4.10;3.53;;;;;;;10.79;87.73;94775.22;5096437;28;20439;-86
2022/05/03 08:24:35;;;;;;;3.40;3.20;;;;;;;10.77;87.10;94777.97;5096317;28;20450;-86
2022/05/03 08:27:04;;;;;;;4.67;3.10;;;;;;;10.79;86.47;94775.22;5061162;28;20428;-86
2022/05/03 08:29:32;;;;;;;3.60;3.30;;;;;;;11.00;87.96;94778.59;5096717;28;20435;-86
2022/05/03 08:31:59;;;;;;;4.37;3.97;;;;;;;11.06;88.52;94772.78;5097202;28;20459;-86
2022/05/03 08:34:26;;;;;;;3.43;3.23;;;;;;;10.94;85.65;94784.34;5097217;28;20471;-87
2022/05/03 08:42:24;;;;;;;4.60;4.20;;;;;;;11.24;88.37;94767.66;5096736;28;20473;-86
2022/05/03 08:44:51;;;;;;;3.50;3.20;;;;;;;11.15;86.50;94774.59;5096384;28;20468;-87
2022/05/03 08:47:20;;;;;;;3.17;2.97;;;;;;;11.23;85.59;94773.91;5097356;28;20443;-86
2022/05/03 08:49:55;;;;;;;3.27;3.00;;;;;;;11.35;86.07;94777.25;5096062;28;20424;-85
2022/05/03 08:52:24;;;;;;;4.03;3.63;;;;;;;11.26;82.48;94778.03;5077762;28;20428;-86
2022/05/03 08:54:51;;;;;;;4.10;3.63;;;;;;;11.36;81.90;94777.09;5096116;28;20526;-86
2022/05/03 08:57:19;;;;;;;3.53;3.23;;;;;;;11.57;83.26;94779.59;5096849;28;20933;-86
2022/05/03 08:59:49;;;;;;;4.03;3.63;;;;;;;11.69;82.67;94777.66;5095907;28;20444;-86
2022/05/03 09:02:16;;;;;;;3.63;3.30;;;;;;;11.88;81.20;94777.66;5095720;28;20446;-86
2022/05/03 09:04:43;;;;;;;3.57;3.30;;;;;;;12.07;81.65;94776.78;5096485;28;20448;-86
2022/05/03 09:07:21;;;;;;;3.37;3.07;;;;;;;12.17;79.52;94780.25;5097007;28;20942;-87
2022/05/03 09:09:49;;;;;;;3.90;3.60;;;;;;;12.34;79.61;94778.66;5096890;28;20449;-87
2022/05/03 09:12:27;;;;;;;3.50;3.20;;;;;;;12.31;76.69;94779.78;5096449;28;20446;-87
2022/05/03 09:14:58;;;;;;;3.83;3.53;;;;;;;12.37;77.06;94787.09;5096394;28;20458;-86
2022/05/03 09:17:37;;;;;;;3.30;3.03;;;;;;;12.12;76.79;94785.06;5096313;28;20843;-86
2022/05/03 09:25:41;;;;;;;6.70;4.23;;;;;;;11.83;80.08;94793.00;5079180;28;20479;-86
2022/05/03 09:28:09;;;;;;;3.83;3.50;;;;;;;11.91;81.47;94779.19;5094887;28;20475;-86
2022/05/03 09:30:46;;;;;;;4.10;3.80;;;;;;;12.00;79.74;94778.31;5095100;28;20443;-87
2022/05/03 09:33:17;;;;;;;5.27;3.40;;;;;;;12.02;77.12;94776.38;5095200;28;20483;-86
2022/05/03 09:35:44;;;;;;;8.97;3.60;;;;;;;11.99;78.15;94781.94;5095160;28;20483;-85
2022/05/03 09:38:11;;;;;;;5.50;3.67;;;;;;;12.17;75.09;94779.41;5095109;28;20444;-86
2022/05/03 09:40:40;;;;;;;4.73;3.33;;;;;;;12.30;74.29;94780.75;5095337;28;20436;-88
2022/05/03 09:43:08;;;;;;;3.90;3.60;;;;;;;12.46;78.83;94768.78;5095172;28;20448;-87
2022/05/03 09:45:37;;;;;;;3.70;3.40;;;;;;;12.51;78.02;94769.19;5076500;28;20855;-86
2022/05/03 09:48:05;;;;;;;4.30;3.90;;;;;;;12.44;77.91;94773.38;5094648;28;20458;-86
2022/05/03 09:50:44;;;;;;;11.63;3.83;;;;;;;12.23;75.49;94771.78;5094884;28;20459;-85
2022/05/03 09:53:15;;;;;;;4.00;3.53;;;;;;;12.15;76.50;94765.56;5094921;28;20446;-86
2022/05/03 09:55:45;;;;;;;3.53;3.23;;;;;;;12.45;76.96;94767.97;5095160;28;20452;-87
2022/05/03 09:58:13;;;;;;;5.70;3.50;;;;;;;12.62;75.77;94767.19;5094906;28;20451;-86
2022/05/03 10:00:43;;;;;;;3.10;2.80;;;;;;;12.63;74.19;94773.28;5094588;28;20938;-85
2022/05/03 10:03:11;;;;;;;4.37;3.57;;;;;;;12.44;73.50;94768.94;5094779;28;20806;-86
2022/05/03 10:05:40;;;;;;;3.60;3.30;;;;;;;12.60;73.24;94771.78;5095067;28;20480;-86
2022/05/03 10:08:08;;;;;;;4.90;3.43;;;;;;;12.55;74.10;94767.91;5094384;28;20444;-86
2022/05/03 10:10:35;;;;;;;3.47;3.17;;;;;;;12.64;72.02;94772.31;5094717;28;20436;-86
2022/05/03 10:13:01;;;;;;;2.73;2.53;;;;;;;12.58;70.51;94783.41;5093864;28;20436;-86
2022/05/03 10:21:13;;;;;;;3.20;2.90;;;;;;;12.89;69.01;94770.81;5094359;28;20470;-86
2022/05/03 10:23:40;;;;;;;3.10;2.90;;;;;;;13.00;67.56;94774.03;5094294;28;20448;-87
2022/05/03 10:26:09;;;;;;;4.70;3.00;;;;;;;12.79;68.45;94767.41;5094578;28;20475;-86
2022/05/03 10:29:07;;;;;;;3.33;2.80;;;;;;;12.91;68.61;94766.22;5094674;28;20440;-87
2022/05/03 10:31:53;;;;;;;4.70;4.20;;;;;;;12.94;70.01;94766.75;5094046;28;20451;-87
2022/05/03 10:34:48;;;;;;;5.17;3.00;;;;;;;13.09;66.06;94774.16;5094139;28;20479;-86
2022/05/03 10:37:17;;;;;;;3.53;3.20;;;;;;;12.99;67.18;94755.75;5095000;28;20456;-86
2022/05/03 10:39:51;;;;;;;4.10;3.70;;;;;;;13.13;67.00;94763.16;5094770;28;20448;-87
2022/05/03 10:42:22;;;;;;;3.10;2.80;;;;;;;13.31;65.79;94760.59;5094683;28;20513;-87
2022/05/03 10:44:58;;;;;;;4.03;3.33;;;;;;;13.46;65.84;94756.44;5094543;28;20452;-87
2022/05/03 10:47:52;;;;;;;3.47;3.00;;;;;;;13.46;63.60;94772.25;5094106;28;20482;-86
2022/05/03 10:50:28;;;;;;;5.40;2.90;;;;;;;13.36;64.04;94765.41;5094324;28;20538;-87
2022/05/03 10:53:35;;;;;;;4.00;2.50;;;;;;;13.25;64.14;94772.53;5094353;28;20815;-88
2022/05/03 10:56:08;;;;;;;2.57;2.37;;;;;;;13.16;65.92;94769.94;5051091;28;20542;-86
2022/05/03 10:58:36;;;;;;;2.50;2.30;;;;;;;13.17;65.87;94761.94;5052191;28;20995;-87
2022/05/03 11:01:05;;;;;;;3.03;2.73;;;;;;;13.17;65.39;94759.28;5052810;28;20446;-86
2022/05/03 11:03:33;;;;;;;2.97;2.77;;;;;;;13.26;65.65;94757.56;5052279;28;20456;-87
2022/05/03 11:06:47;;;;;;;4.73;3.07;;;;;;;13.30;64.97;94754.50;5051955;28;20481;-88
2022/05/03 11:09:25;;;;;;;3.17;2.87;;;;;;;13.45;64.63;94752.16;4993730;28;20476;-88
2022/05/03 11:12:07;;;;;;;2.97;2.77;;;;;;;13.59;64.68;94754.28;4993184;28;20444;-88
2022/05/03 11:14:53;;;;;;;2.50;2.30;;;;;;;13.27;62.92;94751.31;4991445;28;20962;-88
2022/05/03 11:17:21;;;;;;;2.63;2.43;;;;;;;13.47;65.91;94744.09;4991880;28;20498;-88
2022/05/03 11:19:58;;;;;;;2.90;2.60;;;;;;;13.51;65.92;94734.91;4975592;28;20445;-87
2022/05/03 11:22:28;;;;;;;3.43;3.13;;;;;;;13.47;65.43;94729.09;4963089;28;20445;-87
2022/05/03 11:24:58;;;;;;;6.80;2.83;;;;;;;13.40;63.82;94738.59;4991867;28;20459;-86
2022/05/03 11:27:26;;;;;;;3.53;2.93;;;;;;;13.20;63.76;94737.09;4992980;28;20486;-87
2022/05/03 11:29:58;;;;;;;4.83;3.50;;;;;;;13.38;63.62;94732.66;4992354;28;20451;-87
2022/05/03 11:32:30;;;;;;;4.10;3.80;;;;;;;13.30;64.40;94732.59;5001472;28;20508;-86
2022/05/03 11:35:05;;;;;;;6.63;2.97;;;;;;;13.18;63.04;94725.88;5031484;28;20438;-85
2022/05/03 11:37:32;;;;;;;3.07;2.87;;;;;;;13.10;62.40;94731.84;5031535;28;20888;-86
2022/05/03 11:40:06;;;;;;;3.20;2.90;;;;;;;13.05;62.96;94739.38;5030717;28;20455;-86
2022/05/03 11:42:41;;;;;;;5.30;3.10;;;;;;;13.00;66.08;94726.63;5030551;28;20546;-85
2022/05/03 11:45:09;;;;;;;3.50;3.13;;;;;;;13.19;68.02;94730.97;5065291;28;20522;-88
2022/05/03 11:47:38;;;;;;;3.50;3.20;;;;;;;13.17;66.59;94732.09;5093843;28;20570;-85
2022/05/03 11:50:06;;;;;;;2.50;2.30;;;;;;;12.76;64.99;94739.56;5094039;28;20448;-86
2022/05/03 11:58:05;;;;;;;2.30;2.17;;;;;;;12.97;67.53;94732.19;5094714;28;20451;-87
2022/05/03 12:00:46;;;;;;;4.63;2.30;;;;;;;12.94;66.12;94736.94;5093552;28;20440;-87
2022/05/03 12:03:13;;;;;;;2.67;2.47;;;;;;;12.89;66.74;94728.66;5094352;28;20445;-86
2022/05/03 12:05:40;;;;;;;2.60;2.40;;;;;;;12.94;67.65;94724.59;5093043;28;20442;-87
2022/05/03 12:08:20;;;;;;;6.50;3.40;;;;;;;12.97;67.11;94732.19;5057768;28;20428;-89
2022/05/03 12:10:51;;;;;;;3.03;2.80;;;;;;;12.78;65.62;94731.50;5094105;28;20505;-87
2022/05/03 12:13:26;;;;;;;3.03;2.72;;;;;;;12.86;66.12;94735.06;5093107;28;20764;-87
2022/05/03 12:16:07;;;;;;;2.50;2.30;;;;;;;12.86;67.27;94727.16;5093233;28;20209;-87
2022/05/03 12:18:35;;;;;;;3.10;2.43;;;;;;;12.60;66.90;94734.91;5093140;28;20989;-86
2022/05/03 12:21:04;;;;;;;2.73;2.53;;;;;;;12.58;66.90;94734.22;5093933;28;20439;-89
2022/05/03 12:23:40;;;;;;;2.80;2.60;;;;;;;12.55;68.72;94731.91;5057913;28;20439;-88
2022/05/03 12:26:18;;;;;;;2.60;2.37;;;;;;;12.59;68.89;94738.53;5092824;28;20483;-87
2022/05/03 12:28:47;;;;;;;3.07;2.43;;;;;;;12.59;70.07;94732.44;5093010;28;20501;-87